sensor_id;sensor_type;location;lat;lon;timestamp;temperature;humidity
80218;DHT22;69533;37.974;23.708;2023-05-14T00:01:54;23.40;41.10
80218;DHT22;69533;37.974;23.708;2023-05-14T00:04:20;23.30;41.00
80218;DHT22;69533;37.974;23.708;2023-05-14T00:06:46;23.30;41.00
80218;DHT22;69533;37.974;23.708;2023-05-14T00:09:12;23.30;41.00
80218;DHT22;69533;37.974;23.708;2023-05-14T00:11:38;23.30;41.00
80218;DHT22;69533;37.974;23.708;2023-05-14T00:14:04;23.30;41.00
80218;DHT22;69533;37.974;23.708;2023-05-14T00:16:30;23.30;41.10
80218;DHT22;69533;37.974;23.708;2023-05-14T00:18:55;23.30;41.20
80218;DHT22;69533;37.974;23.708;2023-05-14T00:21:21;23.30;41.20
80218;DHT22;69533;37.974;23.708;2023-05-14T00:23:47;23.30;41.20
80218;DHT22;69533;37.974;23.708;2023-05-14T00:26:12;23.30;41.20
80218;DHT22;69533;37.974;23.708;2023-05-14T00:28:38;23.30;41.10
80218;DHT22;69533;37.974;23.708;2023-05-14T00:31:04;23.30;41.10
80218;DHT22;69533;37.974;23.708;2023-05-14T00:33:30;23.30;41.00
80218;DHT22;69533;37.974;23.708;2023-05-14T00:35:55;23.30;41.00
80218;DHT22;69533;37.974;23.708;2023-05-14T00:38:21;23.30;41.10
80218;DHT22;69533;37.974;23.708;2023-05-14T00:40:48;23.30;41.10
80218;DHT22;69533;37.974;23.708;2023-05-14T00:43:20;23.30;41.10
80218;DHT22;69533;37.974;23.708;2023-05-14T00:45:48;23.30;41.00
80218;DHT22;69533;37.974;23.708;2023-05-14T00:48:14;23.30;41.20
80218;DHT22;69533;37.974;23.708;2023-05-14T00:50:40;23.30;41.20
80218;DHT22;69533;37.974;23.708;2023-05-14T00:53:06;23.30;41.20
80218;DHT22;69533;37.974;23.708;2023-05-14T00:55:39;23.20;41.30
80218;DHT22;69533;37.974;23.708;2023-05-14T00:58:08;23.20;41.30
80218;DHT22;69533;37.974;23.708;2023-05-14T01:00:35;23.20;41.40
80218;DHT22;69533;37.974;23.708;2023-05-14T01:03:02;23.20;41.40
80218;DHT22;69533;37.974;23.708;2023-05-14T01:05:37;23.20;41.50
80218;DHT22;69533;37.974;23.708;2023-05-14T01:08:29;23.30;41.40
80218;DHT22;69533;37.974;23.708;2023-05-14T01:11:10;23.20;41.30
80218;DHT22;69533;37.974;23.708;2023-05-14T01:16:17;23.20;41.30
80218;DHT22;69533;37.974;23.708;2023-05-14T01:18:45;23.20;41.40
80218;DHT22;69533;37.974;23.708;2023-05-14T01:21:41;23.20;41.50
80218;DHT22;69533;37.974;23.708;2023-05-14T01:24:07;23.20;41.40
80218;DHT22;69533;37.974;23.708;2023-05-14T01:26:34;23.20;42.40
80218;DHT22;69533;37.974;23.708;2023-05-14T01:29:13;23.20;41.50
80218;DHT22;69533;37.974;23.708;2023-05-14T01:31:42;23.20;41.40
80218;DHT22;69533;37.974;23.708;2023-05-14T01:34:10;23.20;41.30
80218;DHT22;69533;37.974;23.708;2023-05-14T01:36:38;23.20;41.40
80218;DHT22;69533;37.974;23.708;2023-05-14T01:39:05;23.20;41.50
80218;DHT22;69533;37.974;23.708;2023-05-14T01:41:35;23.20;41.50
80218;DHT22;69533;37.974;23.708;2023-05-14T01:44:02;23.20;41.50
80218;DHT22;69533;37.974;23.708;2023-05-14T01:46:31;23.20;41.50
80218;DHT22;69533;37.974;23.708;2023-05-14T01:48:58;23.20;41.50
80218;DHT22;69533;37.974;23.708;2023-05-14T01:51:24;23.20;41.60
80218;DHT22;69533;37.974;23.708;2023-05-14T01:53:50;23.20;41.60
80218;DHT22;69533;37.974;23.708;2023-05-14T01:56:19;23.20;41.60
80218;DHT22;69533;37.974;23.708;2023-05-14T01:58:46;23.20;41.60
80218;DHT22;69533;37.974;23.708;2023-05-14T02:01:12;23.10;41.50
80218;DHT22;69533;37.974;23.708;2023-05-14T02:03:37;23.20;41.70
80218;DHT22;69533;37.974;23.708;2023-05-14T02:06:03;23.10;41.70
80218;DHT22;69533;37.974;23.708;2023-05-14T02:08:29;23.10;41.70
80218;DHT22;69533;37.974;23.708;2023-05-14T02:10:55;23.10;41.70
80218;DHT22;69533;37.974;23.708;2023-05-14T02:13:20;23.10;41.50
80218;DHT22;69533;37.974;23.708;2023-05-14T02:15:46;23.10;41.60
80218;DHT22;69533;37.974;23.708;2023-05-14T02:18:12;23.10;41.50
80218;DHT22;69533;37.974;23.708;2023-05-14T02:20:37;23.10;41.60
80218;DHT22;69533;37.974;23.708;2023-05-14T02:23:03;23.10;41.60
80218;DHT22;69533;37.974;23.708;2023-05-14T02:25:29;23.10;41.70
80218;DHT22;69533;37.974;23.708;2023-05-14T02:27:55;23.10;41.60
80218;DHT22;69533;37.974;23.708;2023-05-14T02:30:21;23.10;41.60
80218;DHT22;69533;37.974;23.708;2023-05-14T02:32:46;23.10;41.60
80218;DHT22;69533;37.974;23.708;2023-05-14T02:35:12;23.10;41.70
80218;DHT22;69533;37.974;23.708;2023-05-14T02:37:38;23.10;41.70
80218;DHT22;69533;37.974;23.708;2023-05-14T02:40:04;23.10;41.70
80218;DHT22;69533;37.974;23.708;2023-05-14T02:42:30;23.10;41.70
80218;DHT22;69533;37.974;23.708;2023-05-14T02:44:56;23.10;41.70
80218;DHT22;69533;37.974;23.708;2023-05-14T02:47:21;23.10;41.80
80218;DHT22;69533;37.974;23.708;2023-05-14T02:49:47;23.10;41.90
80218;DHT22;69533;37.974;23.708;2023-05-14T02:52:13;23.00;41.90
80218;DHT22;69533;37.974;23.708;2023-05-14T02:54:38;23.00;41.90
80218;DHT22;69533;37.974;23.708;2023-05-14T02:57:04;23.00;41.90
80218;DHT22;69533;37.974;23.708;2023-05-14T02:59:30;23.00;41.90
80218;DHT22;69533;37.974;23.708;2023-05-14T03:01:56;23.00;42.00
80218;DHT22;69533;37.974;23.708;2023-05-14T03:04:22;23.00;42.00
80218;DHT22;69533;37.974;23.708;2023-05-14T03:06:48;23.00;41.90
80218;DHT22;69533;37.974;23.708;2023-05-14T03:09:13;23.00;41.90
80218;DHT22;69533;37.974;23.708;2023-05-14T03:11:39;23.00;42.00
80218;DHT22;69533;37.974;23.708;2023-05-14T03:14:05;23.00;42.00
80218;DHT22;69533;37.974;23.708;2023-05-14T03:16:30;23.00;41.90
80218;DHT22;69533;37.974;23.708;2023-05-14T03:18:56;23.00;41.90
80218;DHT22;69533;37.974;23.708;2023-05-14T03:21:22;23.00;41.90
80218;DHT22;69533;37.974;23.708;2023-05-14T03:23:47;23.00;41.90
80218;DHT22;69533;37.974;23.708;2023-05-14T03:26:13;23.00;41.90
80218;DHT22;69533;37.974;23.708;2023-05-14T03:28:39;23.00;41.80
80218;DHT22;69533;37.974;23.708;2023-05-14T03:31:05;23.00;41.80
80218;DHT22;69533;37.974;23.708;2023-05-14T03:33:31;23.00;41.80
80218;DHT22;69533;37.974;23.708;2023-05-14T03:35:56;23.00;41.70
80218;DHT22;69533;37.974;23.708;2023-05-14T03:38:22;23.00;42.70
80218;DHT22;69533;37.974;23.708;2023-05-14T03:40:48;23.10;41.70
80218;DHT22;69533;37.974;23.708;2023-05-14T03:43:13;23.00;41.70
80218;DHT22;69533;37.974;23.708;2023-05-14T03:45:40;23.10;41.70
80218;DHT22;69533;37.974;23.708;2023-05-14T03:48:06;23.10;41.70
80218;DHT22;69533;37.974;23.708;2023-05-14T03:50:32;23.10;41.70
80218;DHT22;69533;37.974;23.708;2023-05-14T03:52:57;23.10;41.70
80218;DHT22;69533;37.974;23.708;2023-05-14T03:55:23;23.10;42.70
80218;DHT22;69533;37.974;23.708;2023-05-14T03:57:49;23.10;41.70
80218;DHT22;69533;37.974;23.708;2023-05-14T04:00:15;23.10;41.70
80218;DHT22;69533;37.974;23.708;2023-05-14T04:02:41;23.10;42.70
80218;DHT22;69533;37.974;23.708;2023-05-14T04:05:07;23.10;41.70
80218;DHT22;69533;37.974;23.708;2023-05-14T04:07:33;23.20;41.70
80218;DHT22;69533;37.974;23.708;2023-05-14T04:09:58;23.10;41.60
80218;DHT22;69533;37.974;23.708;2023-05-14T04:12:25;23.20;41.70
80218;DHT22;69533;37.974;23.708;2023-05-14T04:14:51;23.10;41.60
80218;DHT22;69533;37.974;23.708;2023-05-14T04:17:17;23.20;41.60
80218;DHT22;69533;37.974;23.708;2023-05-14T04:19:43;23.20;41.50
80218;DHT22;69533;37.974;23.708;2023-05-14T04:22:08;23.20;42.50
80218;DHT22;69533;37.974;23.708;2023-05-14T04:24:34;23.20;41.50
80218;DHT22;69533;37.974;23.708;2023-05-14T04:27:00;23.20;41.50
80218;DHT22;69533;37.974;23.708;2023-05-14T04:29:26;23.30;41.40
80218;DHT22;69533;37.974;23.708;2023-05-14T04:31:52;23.30;41.40
80218;DHT22;69533;37.974;23.708;2023-05-14T04:34:18;23.30;41.30
80218;DHT22;69533;37.974;23.708;2023-05-14T04:36:43;23.40;41.30
80218;DHT22;69533;37.974;23.708;2023-05-14T04:39:10;23.40;41.20
80218;DHT22;69533;37.974;23.708;2023-05-14T04:41:37;23.40;41.10
80218;DHT22;69533;37.974;23.708;2023-05-14T04:44:02;23.50;41.00
80218;DHT22;69533;37.974;23.708;2023-05-14T04:46:28;23.50;41.00
80218;DHT22;69533;37.974;23.708;2023-05-14T04:48:54;23.60;40.90
80218;DHT22;69533;37.974;23.708;2023-05-14T04:51:21;23.60;40.80
80218;DHT22;69533;37.974;23.708;2023-05-14T04:53:47;23.70;40.70
80218;DHT22;69533;37.974;23.708;2023-05-14T04:56:12;23.80;40.60
80218;DHT22;69533;37.974;23.708;2023-05-14T04:58:38;23.80;40.50
80218;DHT22;69533;37.974;23.708;2023-05-14T05:01:04;23.80;40.40
80218;DHT22;69533;37.974;23.708;2023-05-14T05:03:30;23.90;40.30
80218;DHT22;69533;37.974;23.708;2023-05-14T05:05:56;24.00;40.20
80218;DHT22;69533;37.974;23.708;2023-05-14T05:08:22;24.00;40.10
80218;DHT22;69533;37.974;23.708;2023-05-14T05:10:48;24.10;40.00
80218;DHT22;69533;37.974;23.708;2023-05-14T05:13:14;24.10;39.70
80218;DHT22;69533;37.974;23.708;2023-05-14T05:15:42;24.10;39.60
80218;DHT22;69533;37.974;23.708;2023-05-14T05:18:07;24.20;39.50
80218;DHT22;69533;37.974;23.708;2023-05-14T05:20:34;24.30;39.40
80218;DHT22;69533;37.974;23.708;2023-05-14T05:23:00;24.40;39.30
80218;DHT22;69533;37.974;23.708;2023-05-14T05:25:26;24.50;39.10
80218;DHT22;69533;37.974;23.708;2023-05-14T05:27:52;24.50;38.80
80218;DHT22;69533;37.974;23.708;2023-05-14T05:30:18;24.60;38.70
80218;DHT22;69533;37.974;23.708;2023-05-14T05:32:44;24.70;39.60
80218;DHT22;69533;37.974;23.708;2023-05-14T05:35:09;24.70;38.40
80218;DHT22;69533;37.974;23.708;2023-05-14T05:37:35;24.80;38.30
80218;DHT22;69533;37.974;23.708;2023-05-14T05:40:01;24.80;38.10
80218;DHT22;69533;37.974;23.708;2023-05-14T05:42:26;24.90;38.10
80218;DHT22;69533;37.974;23.708;2023-05-14T05:44:52;25.00;37.90
80218;DHT22;69533;37.974;23.708;2023-05-14T05:47:18;25.10;37.80
80218;DHT22;69533;37.974;23.708;2023-05-14T05:49:43;25.10;37.60
80218;DHT22;69533;37.974;23.708;2023-05-14T05:52:09;25.20;37.40
80218;DHT22;69533;37.974;23.708;2023-05-14T05:54:35;25.30;37.30
80218;DHT22;69533;37.974;23.708;2023-05-14T05:57:01;25.40;37.10
80218;DHT22;69533;37.974;23.708;2023-05-14T05:59:26;25.50;36.90
80218;DHT22;69533;37.974;23.708;2023-05-14T06:01:52;25.60;36.70
80218;DHT22;69533;37.974;23.708;2023-05-14T06:04:18;25.70;36.60
80218;DHT22;69533;37.974;23.708;2023-05-14T06:06:44;25.80;36.30
80218;DHT22;69533;37.974;23.708;2023-05-14T06:09:10;25.90;36.10
80218;DHT22;69533;37.974;23.708;2023-05-14T06:11:36;26.00;35.90
80218;DHT22;69533;37.974;23.708;2023-05-14T06:14:01;26.10;35.70
80218;DHT22;69533;37.974;23.708;2023-05-14T06:16:46;26.20;35.60
80218;DHT22;69533;37.974;23.708;2023-05-14T06:19:11;26.30;35.40
80218;DHT22;69533;37.974;23.708;2023-05-14T06:21:37;26.40;35.20
80218;DHT22;69533;37.974;23.708;2023-05-14T06:24:03;26.50;35.10
80218;DHT22;69533;37.974;23.708;2023-05-14T06:26:29;26.60;34.90
80218;DHT22;69533;37.974;23.708;2023-05-14T06:28:54;26.70;34.70
80218;DHT22;69533;37.974;23.708;2023-05-14T06:31:20;26.80;34.50
80218;DHT22;69533;37.974;23.708;2023-05-14T06:33:46;26.90;34.40
80218;DHT22;69533;37.974;23.708;2023-05-14T06:36:11;27.00;34.30
80218;DHT22;69533;37.974;23.708;2023-05-14T06:38:37;27.00;34.10
80218;DHT22;69533;37.974;23.708;2023-05-14T06:41:03;26.90;34.10
80218;DHT22;69533;37.974;23.708;2023-05-14T06:43:28;26.90;34.10
80218;DHT22;69533;37.974;23.708;2023-05-14T06:45:54;27.00;34.10
80218;DHT22;69533;37.974;23.708;2023-05-14T06:48:20;27.10;34.00
80218;DHT22;69533;37.974;23.708;2023-05-14T06:50:47;27.10;33.80
80218;DHT22;69533;37.974;23.708;2023-05-14T06:53:13;27.20;33.70
80218;DHT22;69533;37.974;23.708;2023-05-14T06:55:39;27.20;33.50
80218;DHT22;69533;37.974;23.708;2023-05-14T06:58:06;27.30;33.40
80218;DHT22;69533;37.974;23.708;2023-05-14T07:00:31;27.40;33.30
80218;DHT22;69533;37.974;23.708;2023-05-14T07:02:57;27.50;33.30
80218;DHT22;69533;37.974;23.708;2023-05-14T07:05:23;27.50;33.10
80218;DHT22;69533;37.974;23.708;2023-05-14T07:07:49;27.50;33.00
80218;DHT22;69533;37.974;23.708;2023-05-14T07:10:15;27.50;32.90
80218;DHT22;69533;37.974;23.708;2023-05-14T07:12:42;27.60;32.90
80218;DHT22;69533;37.974;23.708;2023-05-14T07:15:08;27.60;33.00
80218;DHT22;69533;37.974;23.708;2023-05-14T07:17:34;27.60;33.00
80218;DHT22;69533;37.974;23.708;2023-05-14T07:20:00;27.60;32.90
80218;DHT22;69533;37.974;23.708;2023-05-14T07:22:26;27.60;33.00
80218;DHT22;69533;37.974;23.708;2023-05-14T07:24:51;27.50;33.00
80218;DHT22;69533;37.974;23.708;2023-05-14T07:27:17;27.50;33.10
80218;DHT22;69533;37.974;23.708;2023-05-14T07:29:43;27.40;33.20
80218;DHT22;69533;37.974;23.708;2023-05-14T07:32:08;27.30;33.20
80218;DHT22;69533;37.974;23.708;2023-05-14T07:34:34;27.30;33.30
80218;DHT22;69533;37.974;23.708;2023-05-14T07:37:01;27.20;33.30
80218;DHT22;69533;37.974;23.708;2023-05-14T07:39:26;27.20;33.50
80218;DHT22;69533;37.974;23.708;2023-05-14T07:41:52;27.10;33.50
80218;DHT22;69533;37.974;23.708;2023-05-14T07:44:23;27.10;34.60
80218;DHT22;69533;37.974;23.708;2023-05-14T07:46:49;27.10;33.70
80218;DHT22;69533;37.974;23.708;2023-05-14T07:49:15;27.10;33.80
80218;DHT22;69533;37.974;23.708;2023-05-14T07:51:40;27.00;33.80
80218;DHT22;69533;37.974;23.708;2023-05-14T07:54:06;27.00;33.90
80218;DHT22;69533;37.974;23.708;2023-05-14T07:56:32;27.00;34.00
80218;DHT22;69533;37.974;23.708;2023-05-14T07:58:57;27.00;34.00
80218;DHT22;69533;37.974;23.708;2023-05-14T08:01:23;26.90;34.00
80218;DHT22;69533;37.974;23.708;2023-05-14T08:03:49;26.90;34.10
80218;DHT22;69533;37.974;23.708;2023-05-14T08:06:15;26.90;34.10
80218;DHT22;69533;37.974;23.708;2023-05-14T08:08:41;26.90;34.10
80218;DHT22;69533;37.974;23.708;2023-05-14T08:11:06;26.80;34.00
80218;DHT22;69533;37.974;23.708;2023-05-14T08:13:32;26.80;34.10
80218;DHT22;69533;37.974;23.708;2023-05-14T08:15:58;26.80;34.10
80218;DHT22;69533;37.974;23.708;2023-05-14T08:18:23;26.80;34.10
80218;DHT22;69533;37.974;23.708;2023-05-14T08:20:49;26.80;34.20
80218;DHT22;69533;37.974;23.708;2023-05-14T08:23:15;26.80;34.20
80218;DHT22;69533;37.974;23.708;2023-05-14T08:25:41;26.80;34.30
80218;DHT22;69533;37.974;23.708;2023-05-14T08:28:07;26.80;34.30
80218;DHT22;69533;37.974;23.708;2023-05-14T08:30:32;26.80;34.30
80218;DHT22;69533;37.974;23.708;2023-05-14T08:32:58;26.80;34.40
80218;DHT22;69533;37.974;23.708;2023-05-14T08:35:24;26.80;34.40
80218;DHT22;69533;37.974;23.708;2023-05-14T08:37:50;26.80;34.40
80218;DHT22;69533;37.974;23.708;2023-05-14T08:40:17;26.80;34.40
80218;DHT22;69533;37.974;23.708;2023-05-14T08:42:43;26.80;34.40
80218;DHT22;69533;37.974;23.708;2023-05-14T08:45:20;26.80;34.50
80218;DHT22;69533;37.974;23.708;2023-05-14T08:47:50;26.80;34.60
80218;DHT22;69533;37.974;23.708;2023-05-14T08:50:16;26.80;34.60
80218;DHT22;69533;37.974;23.708;2023-05-14T08:52:43;26.80;34.60
80218;DHT22;69533;37.974;23.708;2023-05-14T08:55:09;26.80;34.70
80218;DHT22;69533;37.974;23.708;2023-05-14T08:57:36;26.80;34.70
80218;DHT22;69533;37.974;23.708;2023-05-14T09:00:03;26.80;34.70
80218;DHT22;69533;37.974;23.708;2023-05-14T09:02:36;26.80;34.80
80218;DHT22;69533;37.974;23.708;2023-05-14T09:05:03;26.80;34.80
80218;DHT22;69533;37.974;23.708;2023-05-14T09:07:29;26.70;34.80
80218;DHT22;69533;37.974;23.708;2023-05-14T09:09:55;26.70;34.80
80218;DHT22;69533;37.974;23.708;2023-05-14T09:12:21;26.70;35.00
80218;DHT22;69533;37.974;23.708;2023-05-14T09:14:48;26.80;35.10
80218;DHT22;69533;37.974;23.708;2023-05-14T09:17:14;26.70;35.10
80218;DHT22;69533;37.974;23.708;2023-05-14T09:19:41;26.80;35.10
80218;DHT22;69533;37.974;23.708;2023-05-14T09:22:10;26.70;35.10
80218;DHT22;69533;37.974;23.708;2023-05-14T09:24:37;26.70;35.10
80218;DHT22;69533;37.974;23.708;2023-05-14T09:27:06;26.70;35.10
80218;DHT22;69533;37.974;23.708;2023-05-14T09:29:33;26.70;35.10
80218;DHT22;69533;37.974;23.708;2023-05-14T09:31:59;26.70;35.10
80218;DHT22;69533;37.974;23.708;2023-05-14T09:34:32;26.70;35.20
80218;DHT22;69533;37.974;23.708;2023-05-14T09:37:03;26.70;35.20
80218;DHT22;69533;37.974;23.708;2023-05-14T09:39:29;26.70;35.20
80218;DHT22;69533;37.974;23.708;2023-05-14T09:41:56;26.70;35.20
80218;DHT22;69533;37.974;23.708;2023-05-14T09:44:22;26.70;35.20
80218;DHT22;69533;37.974;23.708;2023-05-14T09:46:49;26.70;35.20
80218;DHT22;69533;37.974;23.708;2023-05-14T09:49:15;26.70;35.20
80218;DHT22;69533;37.974;23.708;2023-05-14T09:51:41;26.70;35.10
80218;DHT22;69533;37.974;23.708;2023-05-14T09:54:07;26.70;35.10
80218;DHT22;69533;37.974;23.708;2023-05-14T09:56:33;26.70;35.20
80218;DHT22;69533;37.974;23.708;2023-05-14T09:59:00;26.70;35.10
80218;DHT22;69533;37.974;23.708;2023-05-14T10:01:27;26.70;35.10
80218;DHT22;69533;37.974;23.708;2023-05-14T10:03:54;26.70;35.10
80218;DHT22;69533;37.974;23.708;2023-05-14T10:06:26;26.60;35.00
80218;DHT22;69533;37.974;23.708;2023-05-14T10:09:01;26.60;35.00
80218;DHT22;69533;37.974;23.708;2023-05-14T10:11:30;26.60;35.00
80218;DHT22;69533;37.974;23.708;2023-05-14T10:14:58;26.60;35.00
80218;DHT22;69533;37.974;23.708;2023-05-14T10:17:05;26.60;35.10
80218;DHT22;69533;37.974;23.708;2023-05-14T10:19:33;26.60;35.10
80218;DHT22;69533;37.974;23.708;2023-05-14T10:22:07;26.60;35.00
80218;DHT22;69533;37.974;23.708;2023-05-14T10:24:36;26.60;35.10
80218;DHT22;69533;37.974;23.708;2023-05-14T10:27:03;26.60;35.00
80218;DHT22;69533;37.974;23.708;2023-05-14T10:29:34;26.50;35.00
80218;DHT22;69533;37.974;23.708;2023-05-14T10:32:04;26.50;35.00
80218;DHT22;69533;37.974;23.708;2023-05-14T10:37:10;26.50;35.10
80218;DHT22;69533;37.974;23.708;2023-05-14T10:39:40;26.50;35.20
80218;DHT22;69533;37.974;23.708;2023-05-14T10:42:07;26.50;36.20
80218;DHT22;69533;37.974;23.708;2023-05-14T10:44:35;26.50;35.30
80218;DHT22;69533;37.974;23.708;2023-05-14T10:47:03;26.50;35.40
80218;DHT22;69533;37.974;23.708;2023-05-14T10:49:29;26.40;35.30
80218;DHT22;69533;37.974;23.708;2023-05-14T10:51:55;26.40;35.30
80218;DHT22;69533;37.974;23.708;2023-05-14T10:54:22;26.50;35.40
80218;DHT22;69533;37.974;23.708;2023-05-14T10:56:48;26.50;35.40
80218;DHT22;69533;37.974;23.708;2023-05-14T10:59:16;26.50;35.50
80218;DHT22;69533;37.974;23.708;2023-05-14T11:01:42;26.50;35.60
80218;DHT22;69533;37.974;23.708;2023-05-14T11:04:07;26.40;35.60
80218;DHT22;69533;37.974;23.708;2023-05-14T11:06:34;26.40;35.70
80218;DHT22;69533;37.974;23.708;2023-05-14T11:09:02;26.40;35.80
80218;DHT22;69533;37.974;23.708;2023-05-14T11:11:29;26.40;35.80
80218;DHT22;69533;37.974;23.708;2023-05-14T11:13:55;26.40;35.90
80218;DHT22;69533;37.974;23.708;2023-05-14T11:16:21;26.40;35.90
80218;DHT22;69533;37.974;23.708;2023-05-14T11:18:59;26.40;35.90
80218;DHT22;69533;37.974;23.708;2023-05-14T11:21:26;26.40;35.90
80218;DHT22;69533;37.974;23.708;2023-05-14T11:23:54;26.40;35.90
80218;DHT22;69533;37.974;23.708;2023-05-14T11:26:20;26.40;35.90
80218;DHT22;69533;37.974;23.708;2023-05-14T11:28:47;26.40;35.90
80218;DHT22;69533;37.974;23.708;2023-05-14T11:31:13;26.40;35.90
80218;DHT22;69533;37.974;23.708;2023-05-14T11:33:39;26.40;35.90
80218;DHT22;69533;37.974;23.708;2023-05-14T11:36:05;26.40;35.90
80218;DHT22;69533;37.974;23.708;2023-05-14T11:38:30;26.40;35.90
80218;DHT22;69533;37.974;23.708;2023-05-14T11:40:57;26.40;36.00
80218;DHT22;69533;37.974;23.708;2023-05-14T11:43:24;26.40;36.10
80218;DHT22;69533;37.974;23.708;2023-05-14T11:45:51;26.40;36.10
80218;DHT22;69533;37.974;23.708;2023-05-14T11:48:18;26.40;36.10
80218;DHT22;69533;37.974;23.708;2023-05-14T11:50:51;26.40;36.10
80218;DHT22;69533;37.974;23.708;2023-05-14T11:53:17;26.40;36.20
80218;DHT22;69533;37.974;23.708;2023-05-14T11:55:44;26.40;36.20
80218;DHT22;69533;37.974;23.708;2023-05-14T11:58:10;26.40;36.10
80218;DHT22;69533;37.974;23.708;2023-05-14T12:00:37;26.40;36.10
80218;DHT22;69533;37.974;23.708;2023-05-14T12:03:03;26.40;36.10
80218;DHT22;69533;37.974;23.708;2023-05-14T12:05:29;26.40;35.90
80218;DHT22;69533;37.974;23.708;2023-05-14T12:07:54;26.40;36.00
80218;DHT22;69533;37.974;23.708;2023-05-14T12:10:20;26.40;36.00
80218;DHT22;69533;37.974;23.708;2023-05-14T12:12:47;26.40;36.00
80218;DHT22;69533;37.974;23.708;2023-05-14T12:15:13;26.40;36.00
80218;DHT22;69533;37.974;23.708;2023-05-14T12:17:40;26.40;36.10
80218;DHT22;69533;37.974;23.708;2023-05-14T12:20:09;26.40;36.00
80218;DHT22;69533;37.974;23.708;2023-05-14T12:22:35;26.30;36.00
80218;DHT22;69533;37.974;23.708;2023-05-14T12:25:01;26.40;36.10
80218;DHT22;69533;37.974;23.708;2023-05-14T12:27:28;26.40;36.10
80218;DHT22;69533;37.974;23.708;2023-05-14T12:29:58;26.30;36.10
80218;DHT22;69533;37.974;23.708;2023-05-14T12:32:27;26.30;36.10
80218;DHT22;69533;37.974;23.708;2023-05-14T12:34:55;26.30;36.10
80218;DHT22;69533;37.974;23.708;2023-05-14T12:37:21;26.30;36.20
80218;DHT22;69533;37.974;23.708;2023-05-14T12:39:47;26.30;36.30
80218;DHT22;69533;37.974;23.708;2023-05-14T12:42:14;26.30;36.30
80218;DHT22;69533;37.974;23.708;2023-05-14T12:44:40;26.30;36.30
80218;DHT22;69533;37.974;23.708;2023-05-14T12:47:06;26.20;36.40
80218;DHT22;69533;37.974;23.708;2023-05-14T12:49:32;26.30;36.40
80218;DHT22;69533;37.974;23.708;2023-05-14T12:51:57;26.30;36.30
80218;DHT22;69533;37.974;23.708;2023-05-14T12:54:23;26.20;36.30
80218;DHT22;69533;37.974;23.708;2023-05-14T12:56:49;26.20;36.30
80218;DHT22;69533;37.974;23.708;2023-05-14T12:59:14;26.20;36.30
80218;DHT22;69533;37.974;23.708;2023-05-14T13:01:41;26.20;36.30
80218;DHT22;69533;37.974;23.708;2023-05-14T13:04:08;26.20;36.40
80218;DHT22;69533;37.974;23.708;2023-05-14T13:06:39;26.20;36.40
80218;DHT22;69533;37.974;23.708;2023-05-14T13:09:06;26.20;36.40
80218;DHT22;69533;37.974;23.708;2023-05-14T13:11:32;26.20;36.40
80218;DHT22;69533;37.974;23.708;2023-05-14T13:13:58;26.20;36.50
80218;DHT22;69533;37.974;23.708;2023-05-14T13:16:28;26.20;36.50
80218;DHT22;69533;37.974;23.708;2023-05-14T13:18:54;26.20;36.50
80218;DHT22;69533;37.974;23.708;2023-05-14T13:21:20;26.20;36.50
80218;DHT22;69533;37.974;23.708;2023-05-14T13:23:47;26.20;36.50
80218;DHT22;69533;37.974;23.708;2023-05-14T13:26:13;26.20;36.50
80218;DHT22;69533;37.974;23.708;2023-05-14T13:28:39;26.20;36.50
80218;DHT22;69533;37.974;23.708;2023-05-14T13:31:10;26.20;36.50
80218;DHT22;69533;37.974;23.708;2023-05-14T13:33:39;26.10;36.40
80218;DHT22;69533;37.974;23.708;2023-05-14T13:36:06;26.10;36.40
80218;DHT22;69533;37.974;23.708;2023-05-14T13:38:32;26.10;36.40
80218;DHT22;69533;37.974;23.708;2023-05-14T13:40:58;26.10;36.40
80218;DHT22;69533;37.974;23.708;2023-05-14T13:43:33;26.10;36.40
80218;DHT22;69533;37.974;23.708;2023-05-14T13:46:00;26.10;36.40
80218;DHT22;69533;37.974;23.708;2023-05-14T13:48:27;26.10;36.40
80218;DHT22;69533;37.974;23.708;2023-05-14T13:50:53;26.10;36.40
80218;DHT22;69533;37.974;23.708;2023-05-14T13:53:20;26.10;36.40
80218;DHT22;69533;37.974;23.708;2023-05-14T13:55:46;26.10;36.40
80218;DHT22;69533;37.974;23.708;2023-05-14T13:58:12;26.10;36.40
80218;DHT22;69533;37.974;23.708;2023-05-14T14:00:37;26.10;36.40
80218;DHT22;69533;37.974;23.708;2023-05-14T14:03:04;26.10;36.40
80218;DHT22;69533;37.974;23.708;2023-05-14T14:05:29;26.10;36.30
80218;DHT22;69533;37.974;23.708;2023-05-14T14:07:56;26.10;36.30
80218;DHT22;69533;37.974;23.708;2023-05-14T14:10:22;26.10;36.30
80218;DHT22;69533;37.974;23.708;2023-05-14T14:12:48;26.10;36.30
80218;DHT22;69533;37.974;23.708;2023-05-14T14:15:14;26.10;36.30
80218;DHT22;69533;37.974;23.708;2023-05-14T14:17:40;26.10;36.30
80218;DHT22;69533;37.974;23.708;2023-05-14T14:20:09;26.10;36.30
80218;DHT22;69533;37.974;23.708;2023-05-14T14:22:35;26.10;36.30
80218;DHT22;69533;37.974;23.708;2023-05-14T14:25:01;26.10;36.40
80218;DHT22;69533;37.974;23.708;2023-05-14T14:27:27;26.00;36.40
80218;DHT22;69533;37.974;23.708;2023-05-14T14:29:55;26.00;36.40
80218;DHT22;69533;37.974;23.708;2023-05-14T14:32:21;26.00;36.40
80218;DHT22;69533;37.974;23.708;2023-05-14T14:34:47;26.00;36.50
80218;DHT22;69533;37.974;23.708;2023-05-14T14:37:12;26.00;36.50
80218;DHT22;69533;37.974;23.708;2023-05-14T14:39:38;26.00;36.50
80218;DHT22;69533;37.974;23.708;2023-05-14T14:42:04;26.00;36.50
80218;DHT22;69533;37.974;23.708;2023-05-14T14:44:30;26.00;36.60
80218;DHT22;69533;37.974;23.708;2023-05-14T14:46:55;25.90;36.50
80218;DHT22;69533;37.974;23.708;2023-05-14T14:49:22;26.00;36.70
80218;DHT22;69533;37.974;23.708;2023-05-14T14:51:48;26.00;36.70
80218;DHT22;69533;37.974;23.708;2023-05-14T14:54:13;25.90;36.70
80218;DHT22;69533;37.974;23.708;2023-05-14T14:56:39;25.90;36.70
80218;DHT22;69533;37.974;23.708;2023-05-14T14:59:05;25.90;36.70
80218;DHT22;69533;37.974;23.708;2023-05-14T15:01:32;25.90;36.80
80218;DHT22;69533;37.974;23.708;2023-05-14T15:03:58;25.90;36.80
80218;DHT22;69533;37.974;23.708;2023-05-14T15:06:23;25.90;36.90
80218;DHT22;69533;37.974;23.708;2023-05-14T15:08:49;25.90;36.90
80218;DHT22;69533;37.974;23.708;2023-05-14T15:11:15;25.90;36.90
80218;DHT22;69533;37.974;23.708;2023-05-14T15:13:41;25.90;36.90
80218;DHT22;69533;37.974;23.708;2023-05-14T15:16:22;25.90;37.00
80218;DHT22;69533;37.974;23.708;2023-05-14T15:18:47;25.90;37.10